AVA9530 SKBO-SKCG
Flight info
| Callsign | AVA9530 |
|---|---|
| Flight time | 0h 59m |
| Altitude | 36000 |
| Route | OSUSU4R GIKPU UQ120 DIBAM UW10 UGREB UGREB3B |
| Aircraft | A320/M-SDE3FGHIRWY/LB1 |
Departure
| Time | 2026-05-06 14:07 |
|---|---|
| Airport | El Dorado International Airport (SKBO) |
Arrival
| Time | 2026-05-06 15:06 |
|---|---|
| Airport | Rafael Nuñez International Airport (SKCG) |
| Time | Latitude | Longitude | Altitude | Speed | Heading |
|---|---|---|---|---|---|
| 2026-05-06 13:09 | 4.69777 | -74.14525 | 8366 ft | 0 kts | 38° |
| 2026-05-06 13:50 | 4.69768 | -74.14532 | 8366 ft | 3 kts | 32° |
| 2026-05-06 13:50 | 4.69747 | -74.14541 | 8366 ft | 3 kts | 6° |
| 2026-05-06 13:50 | 4.69725 | -74.14539 | 8366 ft | 3 kts | 331° |
| 2026-05-06 13:51 | 4.69712 | -74.14529 | 8366 ft | 0 kts | 307° |
| 2026-05-06 13:55 | 4.69714 | -74.14532 | 8366 ft | 2 kts | 307° |
| 2026-05-06 13:56 | 4.69728 | -74.14551 | 8366 ft | 5 kts | 307° |
| 2026-05-06 13:56 | 4.69752 | -74.14581 | 8366 ft | 6 kts | 307° |
| 2026-05-06 13:56 | 4.69781 | -74.14619 | 8366 ft | 8 kts | 308° |
| 2026-05-06 13:56 | 4.69815 | -74.14665 | 8366 ft | 9 kts | 307° |
| 2026-05-06 13:57 | 4.69853 | -74.14716 | 8366 ft | 10 kts | 304° |
| 2026-05-06 13:57 | 4.69895 | -74.14773 | 8366 ft | 11 kts | 319° |
| 2026-05-06 13:57 | 4.69961 | -74.14754 | 8366 ft | 11 kts | 40° |
| 2026-05-06 13:57 | 4.70024 | -74.14704 | 8366 ft | 12 kts | 38° |
| 2026-05-06 13:58 | 4.70095 | -74.14651 | 8366 ft | 13 kts | 37° |
| 2026-05-06 13:58 | 4.70169 | -74.14595 | 8366 ft | 14 kts | 37° |
| 2026-05-06 13:58 | 4.70247 | -74.14536 | 8366 ft | 14 kts | 37° |
| 2026-05-06 13:58 | 4.70309 | -74.14489 | 8366 ft | 10 kts | 37° |
| 2026-05-06 13:59 | 4.70368 | -74.14445 | 8366 ft | 11 kts | 37° |
| 2026-05-06 13:59 | 4.70430 | -74.14400 | 8367 ft | 8 kts | 34° |
| 2026-05-06 13:59 | 4.70479 | -74.14399 | 8366 ft | 9 kts | 326° |
| 2026-05-06 13:59 | 4.70522 | -74.14453 | 8367 ft | 12 kts | 307° |
| 2026-05-06 14:00 | 4.70573 | -74.14520 | 8366 ft | 9 kts | 307° |
| 2026-05-06 14:00 | 4.70607 | -74.14564 | 8367 ft | 8 kts | 307° |
| 2026-05-06 14:00 | 4.70642 | -74.14611 | 8367 ft | 8 kts | 307° |
| 2026-05-06 14:00 | 4.70656 | -74.14629 | 8366 ft | 2 kts | 307° |
| 2026-05-06 14:01 | 4.70665 | -74.14641 | 8367 ft | 5 kts | 307° |
| 2026-05-06 14:01 | 4.70695 | -74.14680 | 8367 ft | 9 kts | 306° |
| 2026-05-06 14:01 | 4.70736 | -74.14736 | 8367 ft | 9 kts | 306° |
| 2026-05-06 14:01 | 4.70773 | -74.14785 | 8367 ft | 8 kts | 307° |
| 2026-05-06 14:02 | 4.70801 | -74.14823 | 8366 ft | 6 kts | 308° |
| 2026-05-06 14:02 | 4.70837 | -74.14869 | 8366 ft | 11 kts | 307° |
| 2026-05-06 14:02 | 4.70889 | -74.14939 | 8366 ft | 14 kts | 306° |
| 2026-05-06 14:02 | 4.70950 | -74.15020 | 8366 ft | 15 kts | 308° |
| 2026-05-06 14:03 | 4.71013 | -74.15101 | 8366 ft | 14 kts | 307° |
| 2026-05-06 14:03 | 4.71070 | -74.15177 | 8366 ft | 10 kts | 306° |
| 2026-05-06 14:03 | 4.71108 | -74.15230 | 8367 ft | 9 kts | 306° |
| 2026-05-06 14:03 | 4.71142 | -74.15274 | 8367 ft | 9 kts | 311° |
| 2026-05-06 14:04 | 4.71212 | -74.15298 | 8366 ft | 7 kts | 11° |
| 2026-05-06 14:04 | 4.71228 | -74.15293 | 8366 ft | 0 kts | 21° |
| 2026-05-06 14:05 | 4.71253 | -74.15271 | 8367 ft | 7 kts | 46° |
| 2026-05-06 14:05 | 4.71275 | -74.15249 | 8367 ft | 2 kts | 44° |
| 2026-05-06 14:05 | 4.71284 | -74.15240 | 8366 ft | 2 kts | 44° |
| 2026-05-06 14:05 | 4.71319 | -74.15205 | 8366 ft | 8 kts | 47° |
| 2026-05-06 14:06 | 4.71311 | -74.15169 | 8365 ft | 6 kts | 127° |
| 2026-05-06 14:06 | 4.71308 | -74.15164 | 8365 ft | 0 kts | 126° |
| 2026-05-06 14:06 | 4.71222 | -74.15049 | 8365 ft | 55 kts | 127° |
| 2026-05-06 14:07 | 4.70854 | -74.14564 | 8366 ft | 118 kts | 127° |
| 2026-05-06 14:07 | 4.70246 | -74.13760 | 8365 ft | 169 kts | 127° |
| 2026-05-06 14:07 | 4.69472 | -74.12739 | 8670 ft | 191 kts | 126° |
| 2026-05-06 14:07 | 4.68716 | -74.11638 | 9461 ft | 192 kts | 112° |
| 2026-05-06 14:08 | 4.68677 | -74.10334 | 9994 ft | 194 kts | 68° |
| 2026-05-06 14:08 | 4.69645 | -74.09342 | 10340 ft | 216 kts | 21° |
| 2026-05-06 14:08 | 4.71086 | -74.08955 | 10963 ft | 212 kts | 19° |
| 2026-05-06 14:08 | 4.72489 | -74.08548 | 11442 ft | 211 kts | 19° |
| 2026-05-06 14:09 | 4.73944 | -74.08082 | 11578 ft | 231 kts | 23° |
| 2026-05-06 14:09 | 4.75524 | -74.07559 | 11785 ft | 246 kts | 21° |
| 2026-05-06 14:09 | 4.77142 | -74.07018 | 12322 ft | 250 kts | 23° |
| 2026-05-06 14:09 | 4.78799 | -74.06462 | 12933 ft | 253 kts | 22° |
| 2026-05-06 14:10 | 4.80539 | -74.05871 | 13200 ft | 274 kts | 22° |
| 2026-05-06 14:10 | 4.82423 | -74.05225 | 13388 ft | 296 kts | 22° |
| 2026-05-06 14:10 | 4.84420 | -74.04546 | 13810 ft | 307 kts | 22° |
| 2026-05-06 14:10 | 4.86439 | -74.03864 | 14396 ft | 312 kts | 22° |
| 2026-05-06 14:11 | 4.88506 | -74.03165 | 14992 ft | 314 kts | 22° |
| 2026-05-06 14:11 | 4.90588 | -74.02460 | 15587 ft | 317 kts | 22° |
| 2026-05-06 14:11 | 4.92688 | -74.01750 | 16198 ft | 320 kts | 21° |
| 2026-05-06 14:11 | 4.94806 | -74.01033 | 16819 ft | 322 kts | 21° |
| 2026-05-06 14:12 | 4.96944 | -74.00310 | 17441 ft | 324 kts | 21° |
| 2026-05-06 14:12 | 4.99106 | -73.99579 | 17983 ft | 328 kts | 21° |
| 2026-05-06 14:12 | 5.01277 | -73.98843 | 18551 ft | 331 kts | 21° |
| 2026-05-06 14:12 | 5.03485 | -73.98154 | 18874 ft | 343 kts | 18° |
| 2026-05-06 14:13 | 5.05849 | -73.97523 | 18993 ft | 359 kts | 17° |
| 2026-05-06 14:13 | 5.08333 | -73.96922 | 19114 ft | 374 kts | 15° |
| 2026-05-06 14:13 | 5.10924 | -73.96320 | 19224 ft | 389 kts | 15° |
| 2026-05-06 14:13 | 5.13603 | -73.95695 | 19355 ft | 400 kts | 17° |
| 2026-05-06 14:14 | 5.16323 | -73.95052 | 19774 ft | 403 kts | 16° |
| 2026-05-06 14:14 | 5.19061 | -73.94390 | 20190 ft | 406 kts | 17° |
| 2026-05-06 14:14 | 5.21820 | -73.93709 | 20668 ft | 409 kts | 17° |
| 2026-05-06 14:14 | 5.24559 | -73.93022 | 21116 ft | 412 kts | 16° |
| 2026-05-06 14:15 | 5.27360 | -73.92314 | 21540 ft | 415 kts | 17° |
| 2026-05-06 14:15 | 5.30170 | -73.91607 | 21970 ft | 418 kts | 16° |
| 2026-05-06 14:15 | 5.32996 | -73.90900 | 22420 ft | 419 kts | 17° |
| 2026-05-06 14:15 | 5.35842 | -73.90191 | 22811 ft | 422 kts | 17° |
| 2026-05-06 14:16 | 5.38661 | -73.89489 | 23208 ft | 424 kts | 15° |
| 2026-05-06 14:16 | 5.41547 | -73.88771 | 23483 ft | 427 kts | 17° |
| 2026-05-06 14:16 | 5.44440 | -73.88051 | 23851 ft | 430 kts | 16° |
| 2026-05-06 14:16 | 5.47363 | -73.87325 | 24137 ft | 433 kts | 15° |
| 2026-05-06 14:17 | 5.50296 | -73.86600 | 24461 ft | 435 kts | 15° |
| 2026-05-06 14:17 | 5.53243 | -73.85869 | 24752 ft | 437 kts | 15° |
| 2026-05-06 14:17 | 5.56181 | -73.85182 | 24990 ft | 439 kts | 13° |
| 2026-05-06 14:17 | 5.59185 | -73.84547 | 25271 ft | 442 kts | 12° |
| 2026-05-06 14:18 | 5.62217 | -73.83945 | 25549 ft | 444 kts | 13° |
| 2026-05-06 14:18 | 5.64904 | -73.83422 | 25787 ft | 446 kts | 12° |
| 2026-05-06 14:18 | 5.67956 | -73.82820 | 26074 ft | 448 kts | 13° |
| 2026-05-06 14:18 | 5.71019 | -73.82205 | 26330 ft | 450 kts | 13° |
| 2026-05-06 14:19 | 5.74093 | -73.81578 | 26589 ft | 451 kts | 13° |
| 2026-05-06 14:19 | 5.77178 | -73.80943 | 26854 ft | 454 kts | 13° |
| 2026-05-06 14:19 | 5.80235 | -73.80313 | 27100 ft | 455 kts | 13° |
| 2026-05-06 14:19 | 5.83344 | -73.79669 | 27349 ft | 457 kts | 13° |
| 2026-05-06 14:20 | 5.86473 | -73.79021 | 27566 ft | 459 kts | 13° |
| 2026-05-06 14:20 | 5.89605 | -73.78371 | 27805 ft | 461 kts | 13° |
| 2026-05-06 14:20 | 5.92758 | -73.77719 | 28030 ft | 463 kts | 13° |
| 2026-05-06 14:20 | 5.95917 | -73.77068 | 28270 ft | 465 kts | 13° |
| 2026-05-06 14:21 | 5.99099 | -73.76413 | 28498 ft | 466 kts | 13° |
| 2026-05-06 14:21 | 6.02285 | -73.75756 | 28671 ft | 468 kts | 13° |
| 2026-05-06 14:21 | 6.05486 | -73.75095 | 28884 ft | 470 kts | 13° |
| 2026-05-06 14:21 | 6.08656 | -73.74444 | 29067 ft | 471 kts | 13° |
| 2026-05-06 14:22 | 6.11874 | -73.73784 | 29263 ft | 473 kts | 13° |
| 2026-05-06 14:22 | 6.15099 | -73.73122 | 29394 ft | 474 kts | 13° |
| 2026-05-06 14:22 | 6.18335 | -73.72456 | 29570 ft | 475 kts | 12° |
| 2026-05-06 14:22 | 6.21578 | -73.71788 | 29796 ft | 475 kts | 12° |
| 2026-05-06 14:23 | 6.24827 | -73.71119 | 30061 ft | 475 kts | 12° |
| 2026-05-06 14:23 | 6.28067 | -73.70451 | 30305 ft | 475 kts | 12° |
| 2026-05-06 14:23 | 6.31309 | -73.69781 | 30474 ft | 474 kts | 12° |
| 2026-05-06 14:23 | 6.34538 | -73.69113 | 30695 ft | 474 kts | 12° |
| 2026-05-06 14:24 | 6.37769 | -73.68444 | 30927 ft | 473 kts | 13° |
| 2026-05-06 14:24 | 6.40951 | -73.67785 | 31168 ft | 473 kts | 12° |
| 2026-05-06 14:24 | 6.44178 | -73.67119 | 31373 ft | 472 kts | 12° |
| 2026-05-06 14:24 | 6.47396 | -73.66455 | 31617 ft | 472 kts | 12° |
| 2026-05-06 14:25 | 6.50622 | -73.65789 | 31870 ft | 471 kts | 12° |
| 2026-05-06 14:25 | 6.53837 | -73.65126 | 32115 ft | 470 kts | 13° |
| 2026-05-06 14:25 | 6.57047 | -73.64464 | 32331 ft | 470 kts | 12° |
| 2026-05-06 14:25 | 6.60256 | -73.63805 | 32564 ft | 470 kts | 12° |
| 2026-05-06 14:26 | 6.63464 | -73.63146 | 32806 ft | 470 kts | 12° |
| 2026-05-06 14:26 | 6.66626 | -73.62495 | 33047 ft | 470 kts | 12° |
| 2026-05-06 14:26 | 6.69840 | -73.61836 | 33305 ft | 470 kts | 12° |
| 2026-05-06 14:26 | 6.73046 | -73.61176 | 33538 ft | 469 kts | 12° |
| 2026-05-06 14:27 | 6.76210 | -73.60522 | 33791 ft | 469 kts | 12° |
| 2026-05-06 14:27 | 6.79415 | -73.59859 | 34033 ft | 469 kts | 12° |
| 2026-05-06 14:27 | 6.82620 | -73.59196 | 34267 ft | 467 kts | 12° |
| 2026-05-06 14:27 | 6.85803 | -73.58539 | 34477 ft | 467 kts | 12° |
| 2026-05-06 14:28 | 6.88990 | -73.57880 | 34713 ft | 466 kts | 12° |
| 2026-05-06 14:28 | 6.92170 | -73.57223 | 34943 ft | 465 kts | 12° |
| 2026-05-06 14:28 | 6.95300 | -73.56576 | 35166 ft | 465 kts | 11° |
| 2026-05-06 14:28 | 6.98518 | -73.56174 | 35381 ft | 465 kts | 2° |
| 2026-05-06 14:29 | 7.01750 | -73.56241 | 35583 ft | 464 kts | 358° |
| 2026-05-06 14:29 | 7.04976 | -73.56404 | 35794 ft | 463 kts | 358° |
| 2026-05-06 14:29 | 7.08210 | -73.56561 | 35937 ft | 463 kts | 357° |
| 2026-05-06 14:29 | 7.11432 | -73.56715 | 35974 ft | 464 kts | 358° |
| 2026-05-06 14:30 | 7.17857 | -73.57019 | 35976 ft | 464 kts | 358° |
| 2026-05-06 14:30 | 7.24324 | -73.57321 | 35976 ft | 464 kts | 358° |
| 2026-05-06 14:31 | 7.30750 | -73.57623 | 35956 ft | 463 kts | 357° |
| 2026-05-06 14:31 | 7.37196 | -73.57937 | 35967 ft | 463 kts | 357° |
| 2026-05-06 14:32 | 7.43660 | -73.58254 | 35972 ft | 465 kts | 357° |
| 2026-05-06 14:32 | 7.50137 | -73.58564 | 35973 ft | 464 kts | 358° |
| 2026-05-06 14:33 | 7.56583 | -73.58857 | 35985 ft | 464 kts | 357° |
| 2026-05-06 14:33 | 7.63060 | -73.59167 | 35980 ft | 465 kts | 357° |
| 2026-05-06 14:34 | 7.69492 | -73.59482 | 35972 ft | 464 kts | 357° |
| 2026-05-06 14:34 | 7.75905 | -73.59796 | 35944 ft | 462 kts | 357° |
| 2026-05-06 14:35 | 7.82332 | -73.60122 | 35962 ft | 463 kts | 357° |
| 2026-05-06 14:35 | 7.88748 | -73.60427 | 35966 ft | 465 kts | 358° |
| 2026-05-06 14:36 | 7.95215 | -73.60730 | 35972 ft | 463 kts | 358° |
| 2026-05-06 14:36 | 8.01644 | -73.61018 | 35981 ft | 464 kts | 358° |
| 2026-05-06 14:37 | 8.08100 | -73.61330 | 35950 ft | 466 kts | 357° |
| 2026-05-06 14:37 | 8.14566 | -73.61827 | 35954 ft | 464 kts | 348° |
| 2026-05-06 14:38 | 8.17680 | -73.62706 | 35951 ft | 465 kts | 336° |
| 2026-05-06 14:38 | 8.20597 | -73.64162 | 35960 ft | 465 kts | 329° |
| 2026-05-06 14:38 | 8.23169 | -73.66079 | 35960 ft | 466 kts | 318° |
| 2026-05-06 14:38 | 8.25447 | -73.68425 | 35982 ft | 468 kts | 312° |
| 2026-05-06 14:39 | 8.29814 | -73.73316 | 35983 ft | 467 kts | 312° |
| 2026-05-06 14:39 | 8.34133 | -73.78164 | 35988 ft | 466 kts | 312° |
| 2026-05-06 14:40 | 8.38463 | -73.83028 | 35979 ft | 465 kts | 311° |
| 2026-05-06 14:40 | 8.42795 | -73.87891 | 35979 ft | 465 kts | 311° |
| 2026-05-06 14:41 | 8.47123 | -73.92741 | 35973 ft | 464 kts | 312° |
| 2026-05-06 14:41 | 8.51446 | -73.97592 | 35973 ft | 464 kts | 311° |
| 2026-05-06 14:42 | 8.55728 | -74.02404 | 35971 ft | 463 kts | 312° |
| 2026-05-06 14:42 | 8.60043 | -74.07248 | 35961 ft | 468 kts | 312° |
| 2026-05-06 14:43 | 8.64375 | -74.12120 | 35950 ft | 464 kts | 312° |
| 2026-05-06 14:43 | 8.68675 | -74.16977 | 35953 ft | 463 kts | 312° |
| 2026-05-06 14:44 | 8.72981 | -74.21820 | 35949 ft | 463 kts | 312° |
| 2026-05-06 14:45 | 8.79433 | -74.29071 | 35961 ft | 461 kts | 311° |
| 2026-05-06 14:45 | 8.83670 | -74.33827 | 35949 ft | 455 kts | 312° |
| 2026-05-06 14:46 | 8.87895 | -74.38584 | 35920 ft | 455 kts | 311° |
| 2026-05-06 14:46 | 8.92121 | -74.43372 | 35902 ft | 457 kts | 311° |
| 2026-05-06 14:47 | 8.96352 | -74.48145 | 35898 ft | 459 kts | 311° |
| 2026-05-06 14:47 | 8.98487 | -74.50550 | 35667 ft | 459 kts | 311° |
| 2026-05-06 14:47 | 9.00618 | -74.52953 | 35425 ft | 459 kts | 311° |
| 2026-05-06 14:47 | 9.02754 | -74.55364 | 35191 ft | 459 kts | 311° |
| 2026-05-06 14:48 | 9.04889 | -74.57773 | 34957 ft | 461 kts | 311° |
| 2026-05-06 14:48 | 9.07043 | -74.60204 | 34178 ft | 465 kts | 312° |
| 2026-05-06 14:48 | 9.08479 | -74.61826 | 33509 ft | 468 kts | 312° |
| 2026-05-06 14:48 | 9.10659 | -74.64287 | 32450 ft | 472 kts | 312° |
| 2026-05-06 14:49 | 9.12861 | -74.66770 | 31415 ft | 475 kts | 312° |
| 2026-05-06 14:49 | 9.15075 | -74.69268 | 30342 ft | 478 kts | 312° |
| 2026-05-06 14:49 | 9.17312 | -74.71794 | 29053 ft | 483 kts | 313° |
| 2026-05-06 14:49 | 9.19557 | -74.74334 | 27823 ft | 485 kts | 313° |
| 2026-05-06 14:50 | 9.21785 | -74.76854 | 27041 ft | 480 kts | 313° |
| 2026-05-06 14:50 | 9.24720 | -74.80173 | 26039 ft | 471 kts | 313° |
| 2026-05-06 14:50 | 9.26194 | -74.81839 | 25524 ft | 468 kts | 313° |
| 2026-05-06 14:50 | 9.28416 | -74.84239 | 24770 ft | 464 kts | 318° |
| 2026-05-06 14:51 | 9.30903 | -74.86262 | 24037 ft | 460 kts | 326° |
| 2026-05-06 14:51 | 9.33516 | -74.88125 | 23273 ft | 457 kts | 326° |
| 2026-05-06 14:51 | 9.36107 | -74.89969 | 22515 ft | 453 kts | 326° |
| 2026-05-06 14:51 | 9.38675 | -74.91800 | 21846 ft | 447 kts | 326° |
| 2026-05-06 14:52 | 9.41178 | -74.93587 | 21211 ft | 443 kts | 327° |
| 2026-05-06 14:52 | 9.43700 | -74.95389 | 20582 ft | 439 kts | 327° |
| 2026-05-06 14:52 | 9.46189 | -74.97168 | 19992 ft | 435 kts | 327° |
| 2026-05-06 14:52 | 9.48651 | -74.98925 | 19414 ft | 431 kts | 327° |
| 2026-05-06 14:53 | 9.51073 | -75.00652 | 18865 ft | 428 kts | 327° |
| 2026-05-06 14:53 | 9.53509 | -75.02389 | 18326 ft | 425 kts | 327° |
| 2026-05-06 14:53 | 9.55917 | -75.04106 | 17844 ft | 420 kts | 327° |
| 2026-05-06 14:53 | 9.58298 | -75.05800 | 17316 ft | 416 kts | 327° |
| 2026-05-06 14:54 | 9.60653 | -75.07480 | 16789 ft | 412 kts | 327° |
| 2026-05-06 14:54 | 9.62987 | -75.09148 | 16256 ft | 409 kts | 327° |
| 2026-05-06 14:54 | 9.65306 | -75.10804 | 15699 ft | 406 kts | 327° |
| 2026-05-06 14:54 | 9.67587 | -75.12430 | 15144 ft | 405 kts | 327° |
| 2026-05-06 14:55 | 9.69899 | -75.14075 | 14574 ft | 404 kts | 327° |
| 2026-05-06 14:55 | 9.72207 | -75.15719 | 13990 ft | 404 kts | 326° |
| 2026-05-06 14:55 | 9.74478 | -75.17331 | 13357 ft | 403 kts | 327° |
| 2026-05-06 14:55 | 9.76824 | -75.18939 | 12739 ft | 400 kts | 328° |
| 2026-05-06 14:56 | 9.79111 | -75.20464 | 12129 ft | 397 kts | 328° |
| 2026-05-06 14:56 | 9.81422 | -75.21987 | 11508 ft | 394 kts | 328° |
| 2026-05-06 14:56 | 9.83727 | -75.23504 | 10888 ft | 392 kts | 328° |
| 2026-05-06 14:56 | 9.85970 | -75.24987 | 10693 ft | 376 kts | 328° |
| 2026-05-06 14:57 | 9.88110 | -75.26413 | 10576 ft | 360 kts | 328° |
| 2026-05-06 14:57 | 9.90158 | -75.27780 | 10459 ft | 346 kts | 328° |
| 2026-05-06 14:57 | 9.92114 | -75.29088 | 10349 ft | 334 kts | 328° |
| 2026-05-06 14:57 | 9.94025 | -75.30368 | 10230 ft | 323 kts | 328° |
| 2026-05-06 14:58 | 9.95879 | -75.31592 | 9952 ft | 316 kts | 332° |
| 2026-05-06 14:58 | 9.97927 | -75.32515 | 9109 ft | 325 kts | 342° |
| 2026-05-06 14:58 | 10.00067 | -75.33236 | 8263 ft | 324 kts | 344° |
| 2026-05-06 14:58 | 10.02207 | -75.33945 | 7438 ft | 322 kts | 343° |
| 2026-05-06 14:59 | 10.04183 | -75.34901 | 7070 ft | 307 kts | 326° |
| 2026-05-06 14:59 | 10.05816 | -75.36149 | 7002 ft | 280 kts | 324° |
| 2026-05-06 14:59 | 10.07323 | -75.37306 | 6947 ft | 268 kts | 325° |
| 2026-05-06 14:59 | 10.08823 | -75.38457 | 6892 ft | 271 kts | 324° |
| 2026-05-06 15:00 | 10.10316 | -75.39604 | 6793 ft | 273 kts | 324° |
| 2026-05-06 15:00 | 10.11831 | -75.40773 | 6537 ft | 274 kts | 324° |
| 2026-05-06 15:00 | 10.13347 | -75.41944 | 6186 ft | 271 kts | 324° |
| 2026-05-06 15:00 | 10.14845 | -75.43102 | 5795 ft | 269 kts | 324° |
| 2026-05-06 15:01 | 10.16314 | -75.44237 | 5459 ft | 260 kts | 324° |
| 2026-05-06 15:01 | 10.17725 | -75.45330 | 5112 ft | 250 kts | 324° |
| 2026-05-06 15:01 | 10.19085 | -75.46384 | 4780 ft | 241 kts | 324° |
| 2026-05-06 15:01 | 10.20418 | -75.47414 | 4446 ft | 241 kts | 324° |
| 2026-05-06 15:02 | 10.21730 | -75.48430 | 4120 ft | 239 kts | 323° |
| 2026-05-06 15:02 | 10.23057 | -75.49458 | 3801 ft | 240 kts | 323° |
| 2026-05-06 15:02 | 10.24385 | -75.50486 | 3483 ft | 240 kts | 323° |
| 2026-05-06 15:02 | 10.25728 | -75.51482 | 3187 ft | 238 kts | 332° |
| 2026-05-06 15:03 | 10.27270 | -75.51968 | 2948 ft | 231 kts | 359° |
| 2026-05-06 15:03 | 10.28857 | -75.51932 | 2653 ft | 224 kts | 3° |
| 2026-05-06 15:03 | 10.30395 | -75.51867 | 2366 ft | 218 kts | 4° |
| 2026-05-06 15:03 | 10.31915 | -75.51798 | 2080 ft | 215 kts | 2° |
| 2026-05-06 15:04 | 10.33337 | -75.51739 | 1847 ft | 200 kts | 3° |
| 2026-05-06 15:04 | 10.34683 | -75.51684 | 1585 ft | 186 kts | 2° |
| 2026-05-06 15:04 | 10.35926 | -75.51633 | 1351 ft | 172 kts | 2° |
| 2026-05-06 15:04 | 10.37069 | -75.51586 | 1149 ft | 155 kts | 3° |
| 2026-05-06 15:05 | 10.38109 | -75.51547 | 937 ft | 143 kts | 1° |
| 2026-05-06 15:05 | 10.39118 | -75.51502 | 795 ft | 146 kts | 4° |
| 2026-05-06 15:05 | 10.40099 | -75.51461 | 622 ft | 140 kts | 5° |
| 2026-05-06 15:05 | 10.41072 | -75.51415 | 404 ft | 141 kts | 2° |
| 2026-05-06 15:06 | 10.42051 | -75.51380 | 259 ft | 140 kts | 4° |
| 2026-05-06 15:06 | 10.43023 | -75.51337 | 90 ft | 139 kts | 4° |
| 2026-05-06 15:06 | 10.43897 | -75.51302 | 50 ft | 102 kts | 2° |
| 2026-05-06 15:06 | 10.44366 | -75.51281 | 49 ft | 46 kts | 2° |
| 2026-05-06 15:07 | 10.44563 | -75.51275 | 51 ft | 17 kts | 3° |
| 2026-05-06 15:07 | 10.44604 | -75.51274 | 51 ft | 3 kts | 352° |
| 2026-05-06 15:07 | 10.44613 | -75.51278 | 51 ft | 5 kts | 336° |
| 2026-05-06 15:07 | 10.44626 | -75.51288 | 51 ft | 3 kts | 324° |
| 2026-05-06 15:08 | 10.44643 | -75.51312 | 50 ft | 4 kts | 292° |
| 2026-05-06 15:08 | 10.44649 | -75.51344 | 51 ft | 6 kts | 273° |
| 2026-05-06 15:08 | 10.44634 | -75.51398 | 51 ft | 8 kts | 261° |
| 2026-05-06 15:08 | 10.44625 | -75.51448 | 50 ft | 7 kts | 230° |
| 2026-05-06 15:09 | 10.44584 | -75.51459 | 51 ft | 6 kts | 182° |
| 2026-05-06 15:09 | 10.44550 | -75.51483 | 49 ft | 8 kts | 236° |
| 2026-05-06 15:09 | 10.44531 | -75.51512 | 51 ft | 4 kts | 252° |
| 2026-05-06 15:09 | 10.44532 | -75.51534 | 51 ft | 3 kts | 274° |
| 2026-05-06 15:10 | 10.44531 | -75.51551 | 51 ft | 0 kts | 269° |